aviador You're here:

KDET Decoded Metar

DETROIT in MI, USA
Report Time2017-05-28 23:53:00
UTC Time2017-05-29 00:06:37
Flight Rules vfr VFR
Wind230° at 03 kt
W.Decomp.*RWY 25: 2.9 kt HW 0.8 kt LCW
RWY 15: 0.3 kt HW 3.0 kt RCW
W.Rank230° ranks 2
Current wind is below 230° avg. (9.2)
Visibility9999 m
Phenomena:N/A
Clouds:Few 013 Hf
Scattered 065 Hf
Broken 110 Hf
Expected CloudBase > 400 ft AGL from Temp-Dew spread
Ceiling11,000 ft
Temp18°C (ISA +4)
Dew Point17°C (94% RH)
QNH1005 hPa
Density Alt1,650 ft
Elevation623 ft
Report Wrong Elevation
Raw Report
METAR KDET 282353Z 23003KT 9SM FEW013 SCT065 BKN110 18/17 A2969 RMK
AO2 WSHFT 2240 RAE2259 SLPNO P0000 60011 T01830172 10250
20178 50015=

Extra information for KDET:More info

Metar Taf Metar & Taf Last 4 Metars F.Rules Stats Wind Profile Meteogram Temp Stats Airport Information Weather charts Add Link Nearby VenuesMetar ALERT Operation Metar Decoded Social comments

AIRNAV info for KDET